X  Blizu METAR Podaci o vazduhoplovstvu     KVAD Moody Air Force Base
Temperatura
75°F Temperatura
73°F Tačka Rose
94% Vlaga



Vetar
6 MPS
10 KM/S
3 M/S
5 Čvorovi



200°
JJZ
Trenutna situacija

Oblačno Oblačno
Vazdušni pritisak 1014.52 (hPa) - 29.96 (inHg)
Vidljivost 10 (Milje) - 16.1 (km)
Aerodrom
Aerodromski kod. KVAD

Lokacija: Moody Air Force Base
Udaljenost: 5 (mi)

Metar:
KVAD 190555Z AUTO 20005KT 10SM OVC005 24/23 A2996 RMK AO2 SLP146 T02390228 10260 20234 50000 $

Vreme: 19-08-2022 01:55 EDT